Time;durP1;ratioP1;P1;durP2;ratioP2;P2;SDS_P1;SDS_P2;PMS_P1;PMS_P2;Temp;Humidity;BMP_temperature;BMP_pressure;BME280_temperature;BME280_humidity;BME280_pressure;Samples;Min_cycle;Max_cycle;Signal;HPM_P1;HPM_P2
2023/07/01 00:02:36;;;;;;;3.40;2.27;;;16.00;99.40;;;;;;10380434;28;20291;-70
2023/07/01 00:07:37;;;;;;;4.30;3.17;;;15.90;99.60;;;;;;10387179;28;20310;-70
2023/07/01 00:12:37;;;;;;;4.27;3.00;;;15.80;99.90;;;;;;10388573;28;20417;-70
2023/07/01 00:17:38;;;;;;;5.17;3.13;;;15.80;99.90;;;;;;10396009;28;20247;-70
2023/07/01 00:22:39;;;;;;;6.20;2.70;;;15.70;99.90;;;;;;10391359;28;20327;-70
2023/07/01 00:27:39;;;;;;;4.63;2.90;;;15.60;99.90;;;;;;10395257;28;20227;-70
2023/07/01 00:32:40;;;;;;;4.03;2.93;;;15.50;99.90;;;;;;10391262;28;20240;-70
2023/07/01 00:37:40;;;;;;;3.70;2.83;;;15.50;99.90;;;;;;10393293;28;20228;-71
2023/07/01 00:42:41;;;;;;;6.97;2.40;;;15.40;99.90;;;;;;10389724;28;20313;-70
2023/07/01 00:47:42;;;;;;;3.97;2.90;;;15.40;99.90;;;;;;10394161;28;20307;-71
2023/07/01 00:52:43;;;;;;;5.20;3.10;;;15.40;99.90;;;;;;10388567;28;20243;-71
2023/07/01 00:57:44;;;;;;;3.20;2.60;;;15.40;99.90;;;;;;10390988;28;20997;-70
2023/07/01 01:03:25;;;;;;;3.30;2.73;;;15.40;99.90;;;;;;10396773;28;20228;-71
2023/07/01 01:08:55;;;;;;;5.27;3.00;;;15.40;99.90;;;;;;10404264;28;20319;-70
2023/07/01 01:13:59;;;;;;;5.50;2.90;;;15.30;99.90;;;;;;10393104;28;20262;-70
2023/07/01 01:19:03;;;;;;;5.40;2.47;;;15.30;99.90;;;;;;10391288;28;20315;-71
2023/07/01 01:24:10;;;;;;;3.57;2.80;;;15.30;99.90;;;;;;10392925;28;20644;-70
2023/07/01 01:29:13;;;;;;;3.70;2.80;;;15.30;99.90;;;;;;10396089;28;20225;-71
2023/07/01 01:34:14;;;;;;;3.03;2.77;;;15.30;99.90;;;;;;10396272;28;20308;-70
2023/07/01 01:39:24;;;;;;;4.97;3.20;;;15.30;99.90;;;;;;10401458;28;20311;-70
2023/07/01 01:44:37;;;;;;;3.00;2.60;;;15.30;99.90;;;;;;10385938;28;20660;-70
2023/07/01 01:49:38;;;;;;;6.37;3.20;;;15.30;99.90;;;;;;10392772;28;20227;-70
2023/07/01 01:54:39;;;;;;;7.17;2.80;;;15.40;99.90;;;;;;10388451;28;20236;-70
2023/07/01 01:59:40;;;;;;;4.83;2.70;;;15.40;99.90;;;;;;10392231;28;20224;-70
2023/07/01 02:04:41;;;;;;;4.07;2.40;;;15.40;99.90;;;;;;10388247;28;20221;-70
2023/07/01 02:09:42;;;;;;;3.97;2.40;;;15.40;99.90;;;;;;10399274;28;20224;-70
2023/07/01 02:14:42;;;;;;;4.20;2.13;;;15.40;99.90;;;;;;10393694;28;20262;-71
2023/07/01 02:19:43;;;;;;;2.83;2.13;;;15.40;99.90;;;;;;10387925;28;20220;-70
2023/07/01 02:24:43;;;;;;;3.97;2.20;;;15.40;99.90;;;;;;10390753;28;20227;-70
2023/07/01 02:29:44;;;;;;;2.70;2.17;;;15.50;99.90;;;;;;10387715;28;20224;-71
2023/07/01 02:34:45;;;;;;;3.20;2.27;;;15.50;99.90;;;;;;10390162;28;20783;-71
2023/07/01 02:39:46;;;;;;;3.87;2.27;;;15.50;99.90;;;;;;10387694;28;20223;-71
2023/07/01 02:44:48;;;;;;;2.63;1.83;;;15.50;99.90;;;;;;10389869;28;20252;-69
2023/07/01 02:49:49;;;;;;;3.63;1.93;;;15.40;99.90;;;;;;10387800;28;20281;-70
2023/07/01 02:54:49;;;;;;;4.50;2.13;;;15.40;99.90;;;;;;10388519;28;20225;-70
2023/07/01 02:59:55;;;;;;;3.17;2.30;;;15.40;99.90;;;;;;10387419;28;20721;-70
2023/07/01 03:04:55;;;;;;;3.77;2.10;;;15.40;99.90;;;;;;10391879;28;20221;-70
2023/07/01 03:09:56;;;;;;;4.10;3.00;;;15.40;99.90;;;;;;10388305;28;20216;-70
2023/07/01 03:14:56;;;;;;;5.80;3.13;;;15.40;99.90;;;;;;10391168;28;20227;-71
2023/07/01 03:19:57;;;;;;;5.17;3.50;;;15.40;99.90;;;;;;10385596;28;20308;-71
2023/07/01 03:24:57;;;;;;;4.90;3.93;;;15.40;99.90;;;;;;10398792;28;20686;-71
2023/07/01 03:29:59;;;;;;;7.13;4.27;;;15.40;99.90;;;;;;10397675;28;20220;-70
2023/07/01 03:34:59;;;;;;;6.27;4.27;;;15.40;99.90;;;;;;10390516;28;20227;-71
2023/07/01 03:40:00;;;;;;;5.57;3.90;;;15.50;99.90;;;;;;10383274;28;20226;-70
2023/07/01 03:45:00;;;;;;;4.60;4.00;;;15.60;99.90;;;;;;10381102;28;20228;-70
2023/07/01 03:50:01;;;;;;;4.50;3.97;;;15.60;99.90;;;;;;10385306;28;20282;-71
2023/07/01 03:55:02;;;;;;;5.80;4.13;;;15.70;99.90;;;;;;10387083;28;20250;-70
2023/07/01 04:00:08;;;;;;;4.10;3.60;;;15.90;99.90;;;;;;10385364;28;20221;-70
2023/07/01 04:05:15;;;;;;;6.77;3.80;;;16.00;99.90;;;;;;10388161;28;20644;-71
2023/07/01 04:10:16;;;;;;;7.03;4.17;;;16.10;99.90;;;;;;10390346;28;20715;-70
2023/07/01 04:15:17;;;;;;;5.40;4.20;;;16.20;99.90;;;;;;10389316;28;20640;-70
2023/07/01 04:20:20;;;;;;;7.40;4.50;;;16.30;99.90;;;;;;10383249;28;20233;-70
2023/07/01 04:25:21;;;;;;;6.17;3.93;;;16.50;99.90;;;;;;10390034;28;20188;-70
2023/07/01 04:30:23;;;;;;;8.77;4.17;;;16.70;99.90;;;;;;10382583;28;20181;-70
2023/07/01 04:35:23;;;;;;;4.93;3.83;;;16.80;99.90;;;;;;10389200;28;20282;-70
2023/07/01 04:40:24;;;;;;;5.37;3.83;;;17.10;99.90;;;;;;10381896;28;20272;-70
2023/07/01 04:45:26;;;;;;;4.87;3.57;;;17.20;99.90;;;;;;10381524;28;20220;-70
2023/07/01 04:50:27;;;;;;;5.47;3.70;;;17.40;99.90;;;;;;10380012;28;20727;-71
2023/07/01 04:55:27;;;;;;;8.93;3.77;;;17.50;99.90;;;;;;10388560;28;20231;-70
2023/07/01 05:00:31;;;;;;;7.57;4.00;;;17.80;99.90;;;;;;10382912;28;20223;-71
2023/07/01 05:05:31;;;;;;;4.87;3.60;;;18.00;99.90;;;;;;10388531;28;20816;-71
2023/07/01 05:10:32;;;;;;;4.30;3.20;;;18.20;99.90;;;;;;10393922;28;20240;-71
2023/07/01 05:15:33;;;;;;;5.83;3.60;;;18.30;99.90;;;;;;10392890;28;20228;-71
2023/07/01 05:20:33;;;;;;;6.10;3.60;;;18.20;99.90;;;;;;10393848;28;20219;-71
2023/07/01 05:25:34;;;;;;;5.80;3.10;;;18.10;99.90;;;;;;10397460;28;20211;-71
2023/07/01 05:30:37;;;;;;;3.30;3.00;;;20.00;99.90;;;;;;10393988;28;20726;-71
2023/07/01 05:35:38;;;;;;;7.17;3.60;;;22.70;96.60;;;;;;10396949;28;20230;-70
2023/07/01 05:40:40;;;;;;;9.73;3.27;;;23.10;94.30;;;;;;10394783;28;20239;-70
2023/07/01 05:45:40;;;;;;;7.80;3.00;;;24.30;91.90;;;;;;10386803;28;20244;-71
2023/07/01 05:50:41;;;;;;;4.17;2.80;;;26.70;81.30;;;;;;10392718;28;20315;-71
2023/07/01 05:55:41;;;;;;;8.37;2.90;;;28.40;69.20;;;;;;10387250;28;20651;-70
2023/07/01 06:00:43;;;;;;;3.47;2.47;;;29.60;62.40;;;;;;10393637;28;20271;-70
2023/07/01 06:05:44;;;;;;;3.57;2.77;;;30.40;57.30;;;;;;10391424;28;20889;-71
2023/07/01 06:10:44;;;;;;;3.30;2.63;;;31.10;55.00;;;;;;10394161;28;20241;-71
2023/07/01 06:15:45;;;;;;;4.07;3.00;;;31.50;52.70;;;;;;10386829;28;20236;-71
2023/07/01 06:20:46;;;;;;;4.50;3.20;;;32.10;51.60;;;;;;10390505;28;20212;-71
2023/07/01 06:25:46;;;;;;;3.17;2.53;;;32.70;49.20;;;;;;10387934;28;20270;-71
2023/07/01 06:30:47;;;;;;;5.33;2.80;;;33.00;48.00;;;;;;10388017;28;20744;-71
2023/07/01 06:35:47;;;;;;;3.93;2.37;;;33.00;46.90;;;;;;10387218;28;20224;-71
2023/07/01 06:40:48;;;;;;;5.20;2.60;;;32.60;47.40;;;;;;10389052;28;20244;-70
2023/07/01 06:45:48;;;;;;;3.97;2.73;;;31.80;47.60;;;;;;10387008;28;20250;-71
2023/07/01 06:50:49;;;;;;;6.70;2.90;;;30.50;49.30;;;;;;10388240;28;20791;-71
2023/07/01 06:55:49;;;;;;;8.20;2.50;;;30.60;50.00;;;;;;10386662;28;20223;-71
2023/07/01 07:00:51;;;;;;;6.30;2.40;;;31.70;48.20;;;;;;10387568;28;20225;-71
2023/07/01 07:05:52;;;;;;;5.20;2.70;;;32.10;46.30;;;;;;10387957;28;20239;-70
2023/07/01 07:10:53;;;;;;;5.53;2.83;;;30.60;48.90;;;;;;10395778;28;20450;-71
2023/07/01 07:15:53;;;;;;;6.33;2.80;;;30.40;49.90;;;;;;10388763;28;20723;-72
2023/07/01 07:20:54;;;;;;;8.17;2.77;;;32.50;46.40;;;;;;10392615;28;20221;-72
2023/07/01 07:25:55;;;;;;;3.83;2.80;;;33.40;44.70;;;;;;10388712;28;20668;-70
2023/07/01 07:30:55;;;;;;;9.00;2.70;;;33.40;43.70;;;;;;10390120;28;20231;-71
2023/07/01 07:35:56;;;;;;;4.27;2.40;;;33.30;44.10;;;;;;10380249;28;20738;-70
2023/07/01 07:40:56;;;;;;;6.50;3.40;;;32.90;44.50;;;;;;10388128;28;20225;-70
2023/07/01 07:45:57;;;;;;;6.47;3.20;;;32.00;45.10;;;;;;10390262;28;20224;-71
2023/07/01 07:50:58;;;;;;;9.63;2.60;;;33.00;43.20;;;;;;10385988;28;20244;-71
2023/07/01 07:55:59;;;;;;;5.53;2.83;;;34.40;41.30;;;;;;10386792;28;20219;-71
2023/07/01 08:00:59;;;;;;;8.77;2.70;;;35.20;40.40;;;;;;10389986;28;20204;-71
2023/07/01 08:06:00;;;;;;;5.03;2.13;;;35.60;39.60;;;;;;10393915;28;20217;-71
2023/07/01 08:11:01;;;;;;;5.00;2.60;;;36.10;39.70;;;;;;10385179;28;20233;-71
2023/07/01 08:16:03;;;;;;;5.70;2.43;;;36.90;38.20;;;;;;10387010;28;20224;-71
2023/07/01 08:21:04;;;;;;;6.10;2.10;;;35.20;39.50;;;;;;10384516;28;20225;-71
2023/07/01 08:26:04;;;;;;;6.83;2.37;;;35.80;38.20;;;;;;10388203;28;20205;-72
2023/07/01 08:31:05;;;;;;;5.30;2.20;;;36.30;38.20;;;;;;10385687;28;20228;-70
2023/07/01 08:36:05;;;;;;;7.80;1.83;;;35.30;38.00;;;;;;10388020;28;20217;-70
2023/07/01 08:41:11;;;;;;;3.57;2.03;;;34.40;39.80;;;;;;10394447;28;20562;-71
2023/07/01 08:46:18;;;;;;;10.97;2.30;;;32.10;43.30;;;;;;10390644;28;20217;-71
2023/07/01 08:51:26;;;;;;;6.57;2.00;;;30.40;45.90;;;;;;10395900;28;20234;-71
2023/07/01 08:56:27;;;;;;;3.23;1.93;;;28.70;49.40;;;;;;10388897;28;20210;-71
2023/07/01 09:01:30;;;;;;;3.73;1.83;;;27.90;51.40;;;;;;10402003;28;20630;-70
2023/07/01 09:06:31;;;;;;;3.80;2.00;;;27.30;52.60;;;;;;10402010;28;20224;-71
2023/07/01 09:11:32;;;;;;;5.70;1.93;;;26.80;54.00;;;;;;10388811;28;20235;-71
2023/07/01 09:16:34;;;;;;;3.30;1.90;;;26.30;55.10;;;;;;10395617;28;20679;-71
2023/07/01 09:21:35;;;;;;;2.17;1.97;;;25.60;56.50;;;;;;10392540;28;20932;-71
2023/07/01 09:26:36;;;;;;;3.77;1.70;;;25.10;58.00;;;;;;10402576;28;20226;-71
2023/07/01 09:31:47;;;;;;;10.40;2.17;;;24.60;59.50;;;;;;10387860;28;20221;-71
2023/07/01 09:36:47;;;;;;;3.90;1.67;;;24.30;60.80;;;;;;10392265;28;20308;-71
2023/07/01 09:42:01;;;;;;;4.73;1.80;;;24.20;61.60;;;;;;10396593;28;20316;-71
2023/07/01 09:47:02;;;;;;;4.10;1.30;;;24.20;62.40;;;;;;10385738;28;20287;-71
2023/07/01 09:52:03;;;;;;;4.40;1.63;;;24.20;63.70;;;;;;10391385;28;20233;-71
2023/07/01 09:57:05;;;;;;;1.63;1.17;;;24.30;64.20;;;;;;10397161;28;20217;-71
2023/07/01 10:02:07;;;;;;;3.20;1.20;;;24.30;65.20;;;;;;10391725;28;20231;-71
2023/07/01 10:07:08;;;;;;;4.00;1.47;;;24.20;65.60;;;;;;10388307;28;20758;-71
2023/07/01 10:12:09;;;;;;;1.90;1.60;;;24.00;66.20;;;;;;10391631;28;20274;-71
2023/07/01 10:17:10;;;;;;;3.40;1.30;;;23.90;67.00;;;;;;10387762;28;20655;-71
2023/07/01 10:22:25;;;;;;;2.87;1.23;;;23.80;68.10;;;;;;10391858;28;20308;-71
2023/07/01 10:27:41;;;;;;;3.63;1.70;;;23.90;67.90;;;;;;10385493;28;20225;-71
2023/07/01 10:32:43;;;;;;;3.40;1.40;;;23.90;68.40;;;;;;10390428;28;20266;-71
2023/07/01 10:38:22;;;;;;;3.07;1.40;;;23.90;68.90;;;;;;10387318;28;20229;-71
2023/07/01 10:43:33;;;;;;;1.90;1.30;;;24.00;69.00;;;;;;10384967;28;20240;-71
2023/07/01 10:48:35;;;;;;;3.27;1.30;;;24.00;71.30;;;;;;10385793;28;20225;-71
2023/07/01 10:53:56;;;;;;;5.37;1.57;;;23.70;73.90;;;;;;10391375;28;20659;-71
2023/07/01 10:59:18;;;;;;;4.47;1.30;;;23.40;78.70;;;;;;10388025;28;20684;-71
2023/07/01 11:04:20;;;;;;;1.83;1.10;;;23.20;83.10;;;;;;10383907;28;20258;-71
2023/07/01 11:09:35;;;;;;;2.80;1.80;;;22.90;86.70;;;;;;10391970;28;20227;-71
2023/07/01 11:14:38;;;;;;;3.10;1.50;;;22.70;90.60;;;;;;10384899;28;20715;-71
2023/07/01 11:19:39;;;;;;;2.97;1.70;;;22.60;91.10;;;;;;10403547;28;20271;-71
2023/07/01 11:24:40;;;;;;;2.20;1.40;;;22.80;92.00;;;;;;10383275;28;20295;-71
2023/07/01 11:29:44;;;;;;;4.50;1.70;;;23.00;92.80;;;;;;10383205;28;20225;-72
2023/07/01 11:34:49;;;;;;;4.03;1.60;;;23.60;91.80;;;;;;10387161;28;20232;-72
2023/07/01 11:39:50;;;;;;;1.97;1.33;;;24.00;91.50;;;;;;10391010;28;20271;-71
2023/07/01 11:44:50;;;;;;;3.17;1.60;;;24.20;90.20;;;;;;10387500;28;20229;-70
2023/07/01 11:49:51;;;;;;;3.20;1.60;;;24.50;90.70;;;;;;10387134;28;20228;-70
2023/07/01 11:54:54;;;;;;;4.50;1.43;;;24.80;88.30;;;;;;10383657;28;20931;-71
2023/07/01 11:59:58;;;;;;;2.47;1.70;;;25.10;88.30;;;;;;10393271;28;20239;-71
2023/07/01 12:05:00;;;;;;;3.60;1.70;;;25.30;84.60;;;;;;10385420;28;20231;-71
2023/07/01 12:10:17;;;;;;;4.60;1.67;;;25.70;84.20;;;;;;10385555;28;20247;-71
2023/07/01 12:15:19;;;;;;;2.43;1.80;;;26.10;79.20;;;;;;10396737;28;20330;-71
2023/07/01 12:20:20;;;;;;;1.90;1.50;;;26.00;78.80;;;;;;10391008;28;20196;-71
2023/07/01 12:25:24;;;;;;;1.87;1.43;;;26.00;78.00;;;;;;10397570;28;20253;-72
2023/07/01 12:30:25;;;;;;;2.33;1.17;;;26.00;76.60;;;;;;10389978;28;20675;-71
2023/07/01 12:35:25;;;;;;;1.90;1.60;;;25.60;76.40;;;;;;10397971;28;20225;-71
2023/07/01 12:40:27;;;;;;;3.77;1.70;;;25.20;77.50;;;;;;10389785;28;20223;-70
2023/07/01 12:45:27;;;;;;;6.13;1.77;;;25.30;78.80;;;;;;10397641;28;20758;-70
2023/07/01 12:50:28;;;;;;;2.93;1.27;;;25.50;75.80;;;;;;10389748;28;20241;-71
2023/07/01 12:55:29;;;;;;;2.77;1.70;;;25.10;78.50;;;;;;10395538;28;21026;-70
2023/07/01 13:00:29;;;;;;;3.67;1.80;;;24.90;79.00;;;;;;10388644;28;20724;-71
2023/07/01 13:05:31;;;;;;;4.43;1.80;;;25.00;79.30;;;;;;10388568;28;20193;-70
2023/07/01 13:10:36;;;;;;;3.77;1.60;;;24.90;78.80;;;;;;10402329;28;20640;-71
2023/07/01 13:15:46;;;;;;;3.30;1.60;;;24.90;78.60;;;;;;10387124;28;20622;-70
2023/07/01 13:20:46;;;;;;;4.00;1.60;;;24.80;78.80;;;;;;10396573;28;20228;-70
2023/07/01 13:25:47;;;;;;;4.17;1.70;;;24.50;79.80;;;;;;10392850;28;20225;-70
2023/07/01 13:30:47;;;;;;;1.60;1.37;;;24.40;80.10;;;;;;10395302;28;20260;-71
2023/07/01 13:35:52;;;;;;;4.00;2.07;;;24.50;80.30;;;;;;10390057;28;20598;-71
2023/07/01 13:40:53;;;;;;;2.67;1.73;;;24.50;80.60;;;;;;10397294;28;20235;-70
2023/07/01 13:45:53;;;;;;;5.03;1.80;;;24.40;80.70;;;;;;10394741;28;20644;-71
2023/07/01 13:50:55;;;;;;;1.87;1.60;;;24.20;80.80;;;;;;10390021;28;20267;-70
2023/07/01 13:55:56;;;;;;;3.00;1.87;;;24.10;81.20;;;;;;10393922;28;20288;-71
2023/07/01 14:00:57;;;;;;;2.73;2.03;;;24.20;81.40;;;;;;10389572;28;20361;-71
2023/07/01 14:05:58;;;;;;;2.70;1.70;;;24.20;82.60;;;;;;10390178;28;20405;-71
2023/07/01 14:10:58;;;;;;;3.33;1.80;;;24.40;83.60;;;;;;10386544;28;20235;-71
2023/07/01 14:15:59;;;;;;;1.83;1.47;;;24.30;81.50;;;;;;10393353;28;20780;-70
2023/07/01 14:21:02;;;;;;;3.30;1.87;;;24.00;82.80;;;;;;10388179;28;20307;-71
2023/07/01 14:26:03;;;;;;;2.23;1.83;;;23.90;83.20;;;;;;10387155;28;20568;-70
2023/07/01 14:31:08;;;;;;;3.63;1.83;;;24.00;83.50;;;;;;10389676;28;20220;-70
2023/07/01 14:36:15;;;;;;;4.33;2.07;;;24.00;83.20;;;;;;10386556;28;20236;-70
2023/07/01 14:41:28;;;;;;;3.90;2.07;;;24.30;83.70;;;;;;10390985;28;20260;-70
2023/07/01 14:46:34;;;;;;;3.47;1.80;;;24.20;83.50;;;;;;10382887;28;20222;-70
2023/07/01 14:51:38;;;;;;;1.60;1.50;;;24.10;83.40;;;;;;10383524;28;20228;-71
2023/07/01 14:56:38;;;;;;;2.47;1.90;;;23.80;88.20;;;;;;10389743;28;20624;-71
2023/07/01 15:01:39;;;;;;;5.07;1.60;;;23.60;91.60;;;;;;10384602;28;20224;-70
2023/07/01 15:06:39;;;;;;;5.57;1.80;;;23.20;93.10;;;;;;10395073;28;20271;-70
2023/07/01 15:11:41;;;;;;;2.27;1.60;;;22.70;95.50;;;;;;10383456;28;20217;-70
2023/07/01 15:16:41;;;;;;;3.20;2.13;;;22.20;96.80;;;;;;10388294;28;20231;-70
2023/07/01 15:21:44;;;;;;;3.37;2.10;;;22.00;98.60;;;;;;10400692;28;20216;-70
2023/07/01 15:26:44;;;;;;;2.50;1.77;;;21.80;99.90;;;;;;10395274;28;20220;-70
2023/07/01 15:31:45;;;;;;;10.03;7.13;;;21.80;99.90;;;;;;10385586;28;20221;-71
2023/07/01 15:36:45;;;;;;;2.13;1.53;;;21.60;99.90;;;;;;10395939;28;20212;-71
2023/07/01 15:41:46;;;;;;;2.27;1.47;;;21.60;99.90;;;;;;10385726;28;20719;-70
2023/07/01 15:46:47;;;;;;;4.40;1.87;;;21.80;99.90;;;;;;10386036;28;20275;-71
2023/07/01 15:51:50;;;;;;;1.70;1.53;;;21.90;99.90;;;;;;10385105;28;20334;-70
2023/07/01 15:56:51;;;;;;;3.37;1.60;;;21.90;99.90;;;;;;10391572;28;20241;-71
2023/07/01 16:01:52;;;;;;;6.70;1.80;;;21.80;99.90;;;;;;10385576;28;20338;-71
2023/07/01 16:06:52;;;;;;;5.27;1.77;;;21.60;99.90;;;;;;10393483;28;20609;-71
2023/07/01 16:11:53;;;;;;;2.37;1.23;;;21.50;99.90;;;;;;10385366;28;20216;-71
2023/07/01 16:16:55;;;;;;;2.00;1.80;;;21.30;99.90;;;;;;10385975;28;20684;-71
2023/07/01 16:21:55;;;;;;;1.90;1.80;;;21.10;99.90;;;;;;10385496;28;20217;-70
2023/07/01 16:26:57;;;;;;;2.00;1.80;;;21.10;99.90;;;;;;10384905;28;20217;-71
2023/07/01 16:31:57;;;;;;;2.47;1.50;;;21.30;99.90;;;;;;10383591;28;20248;-71
2023/07/01 16:36:58;;;;;;;1.67;1.37;;;21.30;99.90;;;;;;10390534;28;20241;-70
2023/07/01 16:42:02;;;;;;;4.53;1.63;;;21.40;99.90;;;;;;10385192;28;20221;-71
2023/07/01 16:47:02;;;;;;;1.33;1.23;;;21.50;99.90;;;;;;10384168;28;20225;-70
2023/07/01 16:52:03;;;;;;;1.60;1.50;;;21.70;99.90;;;;;;10385826;28;20225;-71
2023/07/01 16:57:06;;;;;;;1.60;1.50;;;21.90;99.90;;;;;;10388045;28;20715;-71
2023/07/01 17:02:31;;;;;;;3.33;1.77;;;22.00;99.90;;;;;;10394039;28;20217;-71
2023/07/01 17:07:35;;;;;;;3.63;1.57;;;22.00;99.90;;;;;;10388498;28;20619;-71
2023/07/01 17:12:38;;;;;;;2.23;1.30;;;22.20;99.90;;;;;;10400294;28;20227;-71
2023/07/01 17:17:41;;;;;;;1.83;1.40;;;22.20;99.90;;;;;;10395056;28;20217;-70
2023/07/01 17:22:41;;;;;;;2.60;1.60;;;22.10;99.90;;;;;;10390712;28;20593;-71
2023/07/01 17:27:42;;;;;;;3.93;1.80;;;22.00;99.90;;;;;;10401666;28;20274;-71
2023/07/01 17:32:42;;;;;;;3.23;1.33;;;21.80;99.90;;;;;;10396782;28;20662;-71
2023/07/01 17:37:45;;;;;;;3.07;1.70;;;21.70;99.90;;;;;;10392521;28;20212;-71
2023/07/01 17:42:46;;;;;;;2.77;1.83;;;21.70;99.90;;;;;;10389463;28;20705;-71
2023/07/01 17:47:46;;;;;;;2.20;1.40;;;21.70;99.90;;;;;;10397644;28;20217;-71
2023/07/01 17:52:48;;;;;;;2.83;1.43;;;21.70;99.90;;;;;;10388812;28;20278;-71
2023/07/01 17:57:49;;;;;;;3.27;1.53;;;21.70;99.90;;;;;;10390972;28;20252;-71
2023/07/01 18:02:49;;;;;;;2.43;1.47;;;21.60;99.90;;;;;;10388900;28;20227;-71
2023/07/01 18:07:50;;;;;;;2.53;1.37;;;21.50;99.90;;;;;;10389892;28;20736;-71
2023/07/01 18:12:53;;;;;;;2.23;1.07;;;21.50;99.90;;;;;;10391380;28;20225;-70
2023/07/01 18:17:53;;;;;;;2.10;1.00;;;21.40;99.90;;;;;;10385163;28;20235;-71
2023/07/01 18:22:54;;;;;;;0.90;0.90;;;21.10;99.90;;;;;;10389207;28;20227;-73
2023/07/01 18:27:54;;;;;;;3.33;1.30;;;21.00;99.90;;;;;;10387748;28;20233;-72
2023/07/01 18:32:56;;;;;;;3.03;1.43;;;20.90;99.90;;;;;;10389060;28;20224;-71
2023/07/01 18:37:56;;;;;;;1.00;1.00;;;20.90;99.90;;;;;;10388924;28;20607;-71
2023/07/01 18:42:57;;;;;;;2.53;1.23;;;20.90;99.90;;;;;;10387718;28;20229;-70
2023/07/01 18:47:57;;;;;;;0.93;0.80;;;20.90;99.90;;;;;;10379128;28;20640;-70
2023/07/01 18:52:58;;;;;;;1.23;1.10;;;20.90;99.90;;;;;;10388222;28;20278;-70
2023/07/01 18:57:58;;;;;;;1.90;1.30;;;20.90;99.90;;;;;;10386233;28;20313;-71
2023/07/01 19:02:59;;;;;;;1.27;0.93;;;20.90;99.90;;;;;;10388371;28;20578;-71
2023/07/01 19:07:59;;;;;;;1.67;0.83;;;20.90;99.90;;;;;;10386976;28;20224;-71
2023/07/01 19:13:00;;;;;;;1.80;1.27;;;20.90;99.90;;;;;;10390774;28;20623;-71
2023/07/01 19:18:03;;;;;;;1.53;1.23;;;20.80;99.90;;;;;;10393619;28;20206;-70
2023/07/01 19:23:03;;;;;;;1.40;1.30;;;20.80;99.90;;;;;;10389355;28;20223;-71
2023/07/01 19:28:06;;;;;;;2.03;1.33;;;20.70;99.90;;;;;;10390656;28;20611;-71
2023/07/01 19:33:07;;;;;;;2.37;1.53;;;20.70;99.90;;;;;;10390007;28;20325;-71
2023/07/01 19:38:08;;;;;;;2.07;1.87;;;20.60;99.90;;;;;;10388619;28;20808;-71
2023/07/01 19:43:08;;;;;;;2.53;1.93;;;20.60;99.90;;;;;;10397531;28;20225;-71
2023/07/01 19:48:12;;;;;;;2.07;1.77;;;20.50;99.90;;;;;;10387830;28;20216;-70
2023/07/01 19:53:14;;;;;;;2.40;2.00;;;20.50;99.90;;;;;;10382592;28;20716;-70
2023/07/01 19:58:19;;;;;;;2.20;2.00;;;20.50;99.90;;;;;;10388079;28;20220;-70
2023/07/01 20:03:20;;;;;;;1.90;1.80;;;20.40;99.90;;;;;;10384365;28;20219;-71
2023/07/01 20:08:21;;;;;;;2.27;2.00;;;20.50;99.90;;;;;;10381203;28;20217;-71
2023/07/01 20:13:21;;;;;;;2.60;2.10;;;20.50;99.90;;;;;;10389915;28;20247;-70
2023/07/01 20:18:22;;;;;;;2.53;2.33;;;20.40;99.90;;;;;;10382687;28;20255;-70
2023/07/01 20:23:22;;;;;;;2.20;2.10;;;20.40;99.90;;;;;;10390108;28;20250;-71
2023/07/01 20:28:23;;;;;;;2.37;2.17;;;20.40;99.90;;;;;;10382579;28;20220;-71
2023/07/01 20:33:24;;;;;;;6.77;2.30;;;20.30;99.90;;;;;;10396444;28;20243;-71
2023/07/01 20:38:25;;;;;;;2.07;1.80;;;20.20;99.90;;;;;;10390153;28;20217;-71
2023/07/01 20:43:25;;;;;;;2.40;2.20;;;20.00;99.90;;;;;;10397484;28;20338;-70
2023/07/01 20:48:26;;;;;;;1.97;1.87;;;19.80;99.90;;;;;;10396102;28;20256;-71
2023/07/01 20:53:26;;;;;;;2.03;1.83;;;19.70;99.90;;;;;;10396965;28;20255;-71
2023/07/01 20:58:27;;;;;;;2.53;2.10;;;19.70;99.90;;;;;;10387328;28;20221;-71
2023/07/01 21:03:27;;;;;;;2.07;1.97;;;19.50;99.90;;;;;;10396906;28;20217;-71
2023/07/01 21:08:28;;;;;;;2.47;2.27;;;19.50;99.90;;;;;;10395384;28;20212;-70
2023/07/01 21:13:29;;;;;;;2.30;2.10;;;19.50;99.90;;;;;;10396026;28;20780;-71
2023/07/01 21:18:35;;;;;;;2.30;2.10;;;19.40;99.90;;;;;;10395199;28;20216;-70
2023/07/01 21:23:36;;;;;;;2.60;2.27;;;19.40;99.90;;;;;;10389906;28;20214;-71
2023/07/01 21:28:37;;;;;;;3.10;2.80;;;19.30;99.90;;;;;;10403039;28;20586;-71
2023/07/01 21:33:37;;;;;;;2.57;2.37;;;19.20;99.90;;;;;;10395539;28;20724;-71
2023/07/01 21:38:38;;;;;;;3.07;2.80;;;19.10;99.90;;;;;;10394433;28;20239;-70
2023/07/01 21:43:41;;;;;;;2.83;2.63;;;18.90;99.90;;;;;;10397807;28;20306;-71
2023/07/01 21:48:42;;;;;;;3.40;3.13;;;18.80;99.90;;;;;;10389066;28;20292;-71
2023/07/01 21:53:46;;;;;;;2.90;2.70;;;18.80;99.90;;;;;;10393010;28;20306;-71
2023/07/01 21:58:53;;;;;;;2.90;2.70;;;18.70;99.90;;;;;;10389258;28;20217;-71
2023/07/01 22:03:56;;;;;;;3.20;3.00;;;18.80;99.90;;;;;;10391293;28;20275;-71
2023/07/01 22:08:57;;;;;;;2.80;2.60;;;18.70;99.90;;;;;;10388757;28;20577;-71
2023/07/01 22:13:58;;;;;;;3.17;2.87;;;18.60;99.90;;;;;;10393925;28;20223;-71
2023/07/01 22:18:59;;;;;;;3.50;3.20;;;18.60;99.90;;;;;;10393242;28;20742;-71
2023/07/01 22:24:00;;;;;;;3.23;2.93;;;18.60;99.90;;;;;;10389112;28;20283;-71
2023/07/01 22:29:01;;;;;;;4.13;3.33;;;18.60;99.90;;;;;;10389595;28;20302;-71
2023/07/01 22:34:02;;;;;;;3.20;2.90;;;18.60;99.90;;;;;;10393117;28;20570;-71
2023/07/01 22:39:03;;;;;;;4.10;3.43;;;18.50;99.90;;;;;;10387673;28;20213;-71
2023/07/01 22:44:04;;;;;;;3.83;3.30;;;18.30;99.90;;;;;;10389134;28;20660;-71
2023/07/01 22:49:04;;;;;;;3.27;2.93;;;18.20;99.90;;;;;;10387277;28;20224;-71
2023/07/01 22:54:05;;;;;;;3.37;2.90;;;18.20;99.90;;;;;;10387771;28;20282;-71
2023/07/01 22:59:05;;;;;;;2.80;2.47;;;18.20;99.90;;;;;;10386569;28;20217;-71
2023/07/01 23:04:09;;;;;;;3.10;2.80;;;18.40;99.90;;;;;;10388505;28;20251;-71
2023/07/01 23:09:09;;;;;;;2.60;2.40;;;18.50;99.90;;;;;;10398790;28;20211;-71
2023/07/01 23:14:10;;;;;;;4.40;2.60;;;18.50;99.90;;;;;;10366188;28;20224;-71
2023/07/01 23:19:11;;;;;;;3.43;2.40;;;18.60;99.90;;;;;;10382536;28;20217;-71
2023/07/01 23:24:11;;;;;;;4.00;2.47;;;18.60;99.90;;;;;;10391384;28;20248;-71
2023/07/01 23:29:12;;;;;;;3.10;2.50;;;18.70;99.90;;;;;;10397189;28;20319;-71
2023/07/01 23:34:13;;;;;;;2.57;2.10;;;18.70;99.90;;;;;;10391165;28;20232;-71
2023/07/01 23:39:14;;;;;;;3.43;2.50;;;18.70;99.90;;;;;;10393373;28;20242;-71
2023/07/01 23:44:14;;;;;;;2.93;1.80;;;18.70;99.90;;;;;;10391828;28;20228;-71
2023/07/01 23:49:15;;;;;;;3.70;1.97;;;18.60;99.90;;;;;;10388756;28;20231;-71
2023/07/01 23:54:15;;;;;;;3.90;2.70;;;18.60;99.90;;;;;;10383733;28;20224;-71
2023/07/01 23:59:16;;;;;;;5.40;2.03;;;18.60;99.90;;;;;;10387028;28;20761;-70
